Tümü
Montichiari Airport (Brescia) VBS Hava Durumu
|
Brescia (VBS / LIPO)
Açık
Hafif rüzgârlı |
|
23 °C |
VBS Terminal Alan Tahmini
| Date | Time (CEST) | Flight Rules | Wind Dir. | Speed | Type | Height AGL (ft) | Visibility | Remarks | ||||||
|---|---|---|---|---|---|---|---|---|---|---|---|---|---|---|
Yakın zamandaki VBS METAR geçmişi
| Date | Time (CEST) | Flight Rules | Wind Dir. | Speed | Type | Height AGL (ft) | Visibility | Temp (°C) | Temp (°F) | Dew Point (°C) | Dew Point (°F) | Rel. Humid. | Pressure | Density Altitude | Remarks |
|---|---|---|---|---|---|---|---|---|---|---|---|---|---|---|---|
| 01-Eyl | 01:50 | VFR | 10° | 4 kt | 10000 meters | 23° | 73° | 18° | 64° | 73% | 1014 mb | 1.293 ft | |||
| 01-Eyl | 01:20 | VFR | 240° | 5 kt | 10000 meters | 23° | 73° | 18° | 64° | 73% | 1014 mb | 1.293 ft | |||
| 01-Eyl | 00:50 | VFR | 200° | 5 kt | 10000 meters | 23° | 73° | 19° | 66° | 78% | 1014 mb | 1.293 ft | |||
| 01-Eyl | 00:20 | VFR | 170° | 2 kt | 10000 meters | 24° | 75° | 19° | 66° | 74% | 1014 mb | 1.413 ft | |||
| 31-Ağu | 23:50 | VFR | 140° | 1 kt | 10000 meters | 24° | 75° | 18° | 64° | 69% | 1014 mb | 1.413 ft | |||
| 31-Ağu | 23:20 | VFR | Variable | 2 kt | 10000 meters | 25° | 77° | 17° | 62° | 61% | 1013 mb | 1.562 ft | |||
| 31-Ağu | 22:50 | VFR | 100° | 3 kt | 10000 meters | 25° | 77° | 17° | 62° | 61% | 1013 mb | 1.562 ft | |||
| 31-Ağu | 22:20 | VFR | 290° | 5 kt | 10000 meters | 25° | 77° | 18° | 64° | 65% | 1013 mb | 1.562 ft | |||
| 31-Ağu | 21:50 | VFR | 270° | 6 kt | 10000 meters | 27° | 80° | 17° | 62° | 54% | 1013 mb | 1.802 ft | |||
| 31-Ağu | 21:20 | VFR | 280° | 5 kt | 10000 meters | 27° | 80° | 17° | 62° | 54% | 1013 mb | 1.802 ft | |||
| 31-Ağu | 20:50 | VFR | 260° | 5 kt | 10000 meters | 29° | 84° | 17° | 62° | 48% | 1013 mb | 2.042 ft | |||
| 31-Ağu | 20:20 | VFR | 240° | 4 kt | 10000 meters | 29° | 84° | 17° | 62° | 48% | 1012 mb | 2.072 ft | |||
| 31-Ağu | 19:50 | VFR | 250° | 5 kt | 10000 meters | 29° | 84° | 17° | 62° | 48% | 1012 mb | 2.072 ft | |||
| 31-Ağu | 19:20 | VFR | 260° | 5 kt | 10000 meters | 31° | 87° | 17° | 62° | 43% | 1012 mb | 2.312 ft | |||
| 31-Ağu | 18:50 | VFR | 250° | 5 kt | 10000 meters | 32° | 89° | 17° | 62° | 41% | 1012 mb | 2.432 ft | |||
| 31-Ağu | 17:50 | VFR | 250° | 5 kt | 10000 meters | 32° | 89° | 16° | 60° | 38% | 1013 mb | 2.402 ft | |||
| gap in available data | |||||||||||||||
| 31-Ağu | 08:50 | VFR | Variable | 1 kt | 10000 meters | 24° | 75° | 18° | 64° | 69% | 1014 mb | 1.413 ft | |||
| 31-Ağu | 08:20 | VFR | Variable | 1 kt | 10000 meters | 24° | 75° | 18° | 64° | 69% | 1014 mb | 1.413 ft | |||
| 31-Ağu | 07:50 | VFR | 230° | 2 kt | 10000 meters | 21° | 69° | 18° | 64° | 83% | 1014 mb | 1.053 ft | |||
| 31-Ağu | 07:20 | VFR | 210° | 3 kt | 10000 meters | 21° | 69° | 18° | 64° | 83% | 1014 mb | 1.053 ft | |||
| 31-Ağu | 06:50 | VFR | 10° | 2 kt | 10000 meters | 21° | 69° | 17° | 62° | 78% | 1014 mb | 1.053 ft | |||
| 31-Ağu | 06:20 | VFR | 30° | 3 kt | 10000 meters | 21° | 69° | 17° | 62° | 78% | 1014 mb | 1.053 ft | |||
| 31-Ağu | 05:50 | VFR | 10° | 6 kt | Few |
12.000 |
10000 meters | 21° | 69° | 17° | 62° | 78% | 1014 mb | 1.053 ft | |
| 31-Ağu | 05:20 | VFR | 30° | 4 kt | 10000 meters | 21° | 69° | 17° | 62° | 78% | 1014 mb | 1.053 ft | |||
Giriş
| Tarayıcınız desteklenmiyor. tarayıcınızı yükseltin |
